sensor_id;sensor_type;location;lat;lon;timestamp;pressure;altitude;pressure_sealevel;temperature;humidity
61292;BME280;47165;42.664;23.368;2023-02-01T00:01:10;95112.28;;;2.46;63.01
61292;BME280;47165;42.664;23.368;2023-02-01T00:03:35;95112.50;;;2.35;63.63
61292;BME280;47165;42.664;23.368;2023-02-01T00:06:01;95118.28;;;2.45;63.07
61292;BME280;47165;42.664;23.368;2023-02-01T00:08:27;95116.84;;;2.33;63.54
61292;BME280;47165;42.664;23.368;2023-02-01T00:11:06;95109.31;;;2.26;64.26
61292;BME280;47165;42.664;23.368;2023-02-01T00:13:34;95117.56;;;2.40;63.57
61292;BME280;47165;42.664;23.368;2023-02-01T00:16:11;95113.75;;;2.56;63.15
61292;BME280;47165;42.664;23.368;2023-02-01T00:18:41;95112.78;;;2.60;63.01
61292;BME280;47165;42.664;23.368;2023-02-01T00:21:07;95115.38;;;2.60;62.76
61292;BME280;47165;42.664;23.368;2023-02-01T00:23:35;95092.38;;;2.51;62.23
61292;BME280;47165;42.664;23.368;2023-02-01T00:26:02;95104.31;;;2.18;63.36
61292;BME280;47165;42.664;23.368;2023-02-01T00:28:27;95111.41;;;2.08;64.01
61292;BME280;47165;42.664;23.368;2023-02-01T00:31:00;95106.63;;;2.30;63.48
61292;BME280;47165;42.664;23.368;2023-02-01T00:33:27;95108.38;;;1.91;64.23
61292;BME280;47165;42.664;23.368;2023-02-01T00:36:11;95093.41;;;2.07;63.64
61292;BME280;47165;42.664;23.368;2023-02-01T00:38:37;95106.00;;;2.19;62.69
61292;BME280;47165;42.664;23.368;2023-02-01T00:43:31;95097.09;;;2.34;62.52
61292;BME280;47165;42.664;23.368;2023-02-01T00:45:56;95093.00;;;1.86;62.74
61292;BME280;47165;42.664;23.368;2023-02-01T00:48:22;95097.66;;;2.09;62.34
61292;BME280;47165;42.664;23.368;2023-02-01T00:50:47;95104.94;;;1.50;63.14
61292;BME280;47165;42.664;23.368;2023-02-01T00:53:13;95097.94;;;1.56;62.55
61292;BME280;47165;42.664;23.368;2023-02-01T00:55:38;95098.75;;;1.58;62.77
61292;BME280;47165;42.664;23.368;2023-02-01T00:58:04;95095.75;;;1.78;61.87
61292;BME280;47165;42.664;23.368;2023-02-01T01:00:34;95088.94;;;1.76;61.98
61292;BME280;47165;42.664;23.368;2023-02-01T01:03:00;95084.25;;;1.95;60.89
61292;BME280;47165;42.664;23.368;2023-02-01T01:05:25;95087.41;;;1.67;60.88
61292;BME280;47165;42.664;23.368;2023-02-01T01:07:53;95089.53;;;1.89;60.69
61292;BME280;47165;42.664;23.368;2023-02-01T01:10:19;95091.47;;;1.77;59.99
61292;BME280;47165;42.664;23.368;2023-02-01T01:12:44;95083.75;;;2.16;59.52
61292;BME280;47165;42.664;23.368;2023-02-01T01:15:10;95084.00;;;2.41;59.14
61292;BME280;47165;42.664;23.368;2023-02-01T01:17:35;95084.63;;;2.51;58.20
61292;BME280;47165;42.664;23.368;2023-02-01T01:20:01;95078.69;;;2.13;58.59
61292;BME280;47165;42.664;23.368;2023-02-01T01:22:26;95080.34;;;2.14;58.25
61292;BME280;47165;42.664;23.368;2023-02-01T01:24:52;95079.38;;;2.20;58.02
61292;BME280;47165;42.664;23.368;2023-02-01T01:27:17;95088.69;;;2.26;58.37
61292;BME280;47165;42.664;23.368;2023-02-01T01:29:48;95094.47;;;2.35;56.86
61292;BME280;47165;42.664;23.368;2023-02-01T01:32:13;95088.97;;;2.49;56.51
61292;BME280;47165;42.664;23.368;2023-02-01T01:34:39;95085.47;;;1.77;57.68
61292;BME280;47165;42.664;23.368;2023-02-01T01:37:04;95090.06;;;2.03;57.75
61292;BME280;47165;42.664;23.368;2023-02-01T01:39:29;95086.53;;;2.07;56.68
61292;BME280;47165;42.664;23.368;2023-02-01T01:41:55;95089.25;;;2.01;56.10
61292;BME280;47165;42.664;23.368;2023-02-01T01:44:59;95096.44;;;2.26;56.25
61292;BME280;47165;42.664;23.368;2023-02-01T01:47:27;95086.66;;;2.40;55.63
61292;BME280;47165;42.664;23.368;2023-02-01T01:49:56;95095.44;;;2.67;55.35
61292;BME280;47165;42.664;23.368;2023-02-01T01:52:22;95086.38;;;2.85;54.85
61292;BME280;47165;42.664;23.368;2023-02-01T01:54:50;95087.03;;;1.84;55.72
61292;BME280;47165;42.664;23.368;2023-02-01T01:57:26;95079.28;;;2.23;55.87
61292;BME280;47165;42.664;23.368;2023-02-01T02:00:03;95091.88;;;1.98;55.95
61292;BME280;47165;42.664;23.368;2023-02-01T02:02:29;95091.59;;;1.71;56.61
61292;BME280;47165;42.664;23.368;2023-02-01T02:04:55;95104.94;;;1.50;57.50
61292;BME280;47165;42.664;23.368;2023-02-01T02:07:26;95095.38;;;1.55;57.51
61292;BME280;47165;42.664;23.368;2023-02-01T02:09:54;95083.78;;;1.76;56.73
61292;BME280;47165;42.664;23.368;2023-02-01T02:12:19;95098.78;;;1.97;56.25
61292;BME280;47165;42.664;23.368;2023-02-01T02:14:45;95077.06;;;2.09;55.70
61292;BME280;47165;42.664;23.368;2023-02-01T02:17:23;95082.22;;;2.08;55.85
61292;BME280;47165;42.664;23.368;2023-02-01T02:29:24;95073.44;;;1.77;56.82
61292;BME280;47165;42.664;23.368;2023-02-01T02:33:53;95069.97;;;1.80;55.98
61292;BME280;47165;42.664;23.368;2023-02-01T02:48:32;95087.03;;;1.44;57.10
61292;BME280;47165;42.664;23.368;2023-02-01T02:50:55;95096.56;;;0.93;59.11
61292;BME280;47165;42.664;23.368;2023-02-01T02:56:29;95082.09;;;1.33;58.11
61292;BME280;47165;42.664;23.368;2023-02-01T02:59:16;95087.09;;;1.40;57.96
61292;BME280;47165;42.664;23.368;2023-02-01T03:02:01;95080.53;;;1.26;58.25
61292;BME280;47165;42.664;23.368;2023-02-01T03:04:45;95083.28;;;1.60;56.91
61292;BME280;47165;42.664;23.368;2023-02-01T03:12:41;95091.38;;;0.96;58.27
61292;BME280;47165;42.664;23.368;2023-02-01T03:15:21;95099.22;;;1.35;57.44
61292;BME280;47165;42.664;23.368;2023-02-01T03:17:50;95100.97;;;1.33;56.09
61292;BME280;47165;42.664;23.368;2023-02-01T03:20:17;95106.28;;;1.23;56.75
61292;BME280;47165;42.664;23.368;2023-02-01T03:22:46;95105.09;;;1.40;56.26
61292;BME280;47165;42.664;23.368;2023-02-01T03:25:17;95102.91;;;1.64;55.86
61292;BME280;47165;42.664;23.368;2023-02-01T03:27:55;95117.03;;;1.87;55.15
61292;BME280;47165;42.664;23.368;2023-02-01T03:30:57;95112.03;;;1.80;54.71
61292;BME280;47165;42.664;23.368;2023-02-01T03:33:19;95109.31;;;1.87;55.42
61292;BME280;47165;42.664;23.368;2023-02-01T03:41:27;95128.59;;;1.66;54.92
61292;BME280;47165;42.664;23.368;2023-02-01T03:47:13;95105.75;;;1.52;55.94
61292;BME280;47165;42.664;23.368;2023-02-01T03:49:45;95111.25;;;1.75;56.04
61292;BME280;47165;42.664;23.368;2023-02-01T03:52:18;95105.56;;;2.01;54.79
61292;BME280;47165;42.664;23.368;2023-02-01T03:54:46;95107.75;;;1.78;54.98
61292;BME280;47165;42.664;23.368;2023-02-01T03:57:14;95113.81;;;1.75;55.59
61292;BME280;47165;42.664;23.368;2023-02-01T03:59:45;95104.72;;;2.01;54.60
61292;BME280;47165;42.664;23.368;2023-02-01T04:02:11;95097.38;;;2.21;54.21
61292;BME280;47165;42.664;23.368;2023-02-01T04:04:36;95106.91;;;2.18;54.21
61292;BME280;47165;42.664;23.368;2023-02-01T04:07:02;95109.91;;;2.37;53.93
61292;BME280;47165;42.664;23.368;2023-02-01T04:09:28;95105.81;;;1.89;54.47
61292;BME280;47165;42.664;23.368;2023-02-01T04:11:53;95107.22;;;2.03;54.57
61292;BME280;47165;42.664;23.368;2023-02-01T04:14:18;95099.63;;;1.98;54.66
61292;BME280;47165;42.664;23.368;2023-02-01T04:16:44;95090.91;;;2.04;54.69
61292;BME280;47165;42.664;23.368;2023-02-01T04:19:10;95101.56;;;2.26;54.51
61292;BME280;47165;42.664;23.368;2023-02-01T04:21:36;95102.44;;;2.25;54.22
61292;BME280;47165;42.664;23.368;2023-02-01T04:24:01;95113.09;;;1.70;55.71
61292;BME280;47165;42.664;23.368;2023-02-01T04:26:26;95108.81;;;1.68;56.96
61292;BME280;47165;42.664;23.368;2023-02-01T04:28:52;95122.81;;;1.56;57.03
61292;BME280;47165;42.664;23.368;2023-02-01T04:31:18;95109.13;;;1.94;56.75
61292;BME280;47165;42.664;23.368;2023-02-01T04:33:51;95118.41;;;2.03;56.07
61292;BME280;47165;42.664;23.368;2023-02-01T04:36:17;95104.56;;;2.07;56.19
61292;BME280;47165;42.664;23.368;2023-02-01T04:38:46;95115.16;;;2.32;56.28
61292;BME280;47165;42.664;23.368;2023-02-01T04:41:12;95100.22;;;2.47;55.43
61292;BME280;47165;42.664;23.368;2023-02-01T04:43:37;95105.69;;;1.95;56.89
61292;BME280;47165;42.664;23.368;2023-02-01T04:46:03;95116.38;;;2.16;56.59
61292;BME280;47165;42.664;23.368;2023-02-01T04:48:28;95108.41;;;2.27;56.76
61292;BME280;47165;42.664;23.368;2023-02-01T04:50:53;95116.94;;;2.29;56.66
61292;BME280;47165;42.664;23.368;2023-02-01T04:53:19;95104.16;;;2.26;56.72
61292;BME280;47165;42.664;23.368;2023-02-01T04:55:44;95115.56;;;2.51;56.46
61292;BME280;47165;42.664;23.368;2023-02-01T04:58:13;95119.88;;;2.51;56.70
61292;BME280;47165;42.664;23.368;2023-02-01T05:00:38;95120.41;;;2.65;56.55
61292;BME280;47165;42.664;23.368;2023-02-01T05:03:04;95135.91;;;2.64;56.09
61292;BME280;47165;42.664;23.368;2023-02-01T05:05:29;95149.75;;;2.59;56.80
61292;BME280;47165;42.664;23.368;2023-02-01T05:07:55;95128.63;;;2.05;58.54
61292;BME280;47165;42.664;23.368;2023-02-01T05:10:21;95157.16;;;2.36;58.13
61292;BME280;47165;42.664;23.368;2023-02-01T05:12:46;95146.13;;;1.90;59.53
61292;BME280;47165;42.664;23.368;2023-02-01T05:15:31;95155.13;;;2.11;59.19
61292;BME280;47165;42.664;23.368;2023-02-01T05:17:57;95145.81;;;2.04;58.91
61292;BME280;47165;42.664;23.368;2023-02-01T05:20:23;95152.06;;;2.33;58.59
61292;BME280;47165;42.664;23.368;2023-02-01T05:22:49;95149.31;;;2.40;58.25
61292;BME280;47165;42.664;23.368;2023-02-01T05:25:15;95144.88;;;2.47;57.88
61292;BME280;47165;42.664;23.368;2023-02-01T05:27:40;95142.09;;;2.56;57.97
61292;BME280;47165;42.664;23.368;2023-02-01T05:30:06;95136.88;;;2.20;58.94
61292;BME280;47165;42.664;23.368;2023-02-01T05:32:32;95152.41;;;2.17;59.45
61292;BME280;47165;42.664;23.368;2023-02-01T05:34:58;95153.38;;;2.13;59.61
61292;BME280;47165;42.664;23.368;2023-02-01T05:37:23;95154.09;;;2.18;59.41
61292;BME280;47165;42.664;23.368;2023-02-01T05:39:49;95144.09;;;2.44;58.68
61292;BME280;47165;42.664;23.368;2023-02-01T05:42:15;95150.03;;;2.47;58.49
61292;BME280;47165;42.664;23.368;2023-02-01T05:44:40;95144.97;;;2.44;58.55
61292;BME280;47165;42.664;23.368;2023-02-01T05:47:06;95137.50;;;2.68;58.02
61292;BME280;47165;42.664;23.368;2023-02-01T05:49:32;95142.59;;;2.71;57.49
61292;BME280;47165;42.664;23.368;2023-02-01T05:51:57;95132.31;;;2.71;57.84
61292;BME280;47165;42.664;23.368;2023-02-01T05:54:22;95144.88;;;2.83;57.79
61292;BME280;47165;42.664;23.368;2023-02-01T05:56:48;95136.88;;;2.20;58.92
61292;BME280;47165;42.664;23.368;2023-02-01T05:59:13;95142.03;;;2.20;59.47
61292;BME280;47165;42.664;23.368;2023-02-01T06:01:39;95149.16;;;2.48;58.52
61292;BME280;47165;42.664;23.368;2023-02-01T06:04:04;95144.28;;;2.72;58.01
61292;BME280;47165;42.664;23.368;2023-02-01T06:06:29;95142.03;;;2.58;57.34
61292;BME280;47165;42.664;23.368;2023-02-01T06:08:55;95152.56;;;2.49;57.66
61292;BME280;47165;42.664;23.368;2023-02-01T06:11:20;95154.91;;;2.59;56.81
61292;BME280;47165;42.664;23.368;2023-02-01T06:13:46;95164.97;;;2.31;58.32
61292;BME280;47165;42.664;23.368;2023-02-01T06:16:11;95153.13;;;2.61;57.80
61292;BME280;47165;42.664;23.368;2023-02-01T06:18:37;95162.38;;;2.70;57.05
61292;BME280;47165;42.664;23.368;2023-02-01T06:21:03;95152.53;;;2.86;56.54
61292;BME280;47165;42.664;23.368;2023-02-01T06:23:29;95153.34;;;2.52;57.19
61292;BME280;47165;42.664;23.368;2023-02-01T06:26:06;95154.41;;;2.81;56.92
61292;BME280;47165;42.664;23.368;2023-02-01T06:28:33;95152.84;;;2.74;56.72
61292;BME280;47165;42.664;23.368;2023-02-01T06:31:05;95160.75;;;2.66;56.58
61292;BME280;47165;42.664;23.368;2023-02-01T06:33:34;95156.84;;;2.86;56.55
61292;BME280;47165;42.664;23.368;2023-02-01T06:36:01;95148.72;;;2.67;56.26
61292;BME280;47165;42.664;23.368;2023-02-01T06:38:28;95155.34;;;2.77;55.93
61292;BME280;47165;42.664;23.368;2023-02-01T06:40:55;95152.50;;;2.88;56.08
61292;BME280;47165;42.664;23.368;2023-02-01T06:43:23;95170.25;;;3.00;55.61
61292;BME280;47165;42.664;23.368;2023-02-01T06:45:49;95163.41;;;2.63;55.56
61292;BME280;47165;42.664;23.368;2023-02-01T06:48:15;95151.72;;;2.48;56.09
61292;BME280;47165;42.664;23.368;2023-02-01T06:50:40;95177.00;;;2.70;55.68
61292;BME280;47165;42.664;23.368;2023-02-01T06:53:05;95165.19;;;2.59;55.82
61292;BME280;47165;42.664;23.368;2023-02-01T06:55:31;95174.94;;;2.84;55.39
61292;BME280;47165;42.664;23.368;2023-02-01T06:57:56;95194.59;;;2.52;56.43
61292;BME280;47165;42.664;23.368;2023-02-01T07:00:22;95176.84;;;2.76;55.91
61292;BME280;47165;42.664;23.368;2023-02-01T07:02:48;95185.25;;;2.84;55.39
61292;BME280;47165;42.664;23.368;2023-02-01T07:05:14;95185.94;;;2.91;54.85
61292;BME280;47165;42.664;23.368;2023-02-01T07:07:40;95198.31;;;2.76;55.12
61292;BME280;47165;42.664;23.368;2023-02-01T07:10:05;95199.66;;;2.55;55.46
61292;BME280;47165;42.664;23.368;2023-02-01T07:12:31;95181.34;;;2.68;55.49
61292;BME280;47165;42.664;23.368;2023-02-01T07:14:56;95193.38;;;2.67;55.08
61292;BME280;47165;42.664;23.368;2023-02-01T07:17:22;95187.69;;;2.54;55.26
61292;BME280;47165;42.664;23.368;2023-02-01T07:19:48;95220.56;;;2.41;56.00
61292;BME280;47165;42.664;23.368;2023-02-01T07:22:16;95236.00;;;2.43;55.83
61292;BME280;47165;42.664;23.368;2023-02-01T07:24:41;95216.34;;;2.78;55.26
61292;BME280;47165;42.664;23.368;2023-02-01T07:27:07;95196.50;;;2.81;54.54
61292;BME280;47165;42.664;23.368;2023-02-01T07:29:32;95213.75;;;2.78;54.46
61292;BME280;47165;42.664;23.368;2023-02-01T07:31:58;95218.09;;;2.76;54.97
61292;BME280;47165;42.664;23.368;2023-02-01T07:34:23;95216.00;;;2.93;54.45
61292;BME280;47165;42.664;23.368;2023-02-01T07:36:49;95218.25;;;2.70;54.95
61292;BME280;47165;42.664;23.368;2023-02-01T07:39:14;95211.69;;;2.92;54.46
61292;BME280;47165;42.664;23.368;2023-02-01T07:41:39;95265.84;;;2.94;54.19
61292;BME280;47165;42.664;23.368;2023-02-01T07:44:05;95239.00;;;3.01;54.05
61292;BME280;47165;42.664;23.368;2023-02-01T07:46:30;95231.16;;;3.06;54.05
61292;BME280;47165;42.664;23.368;2023-02-01T07:48:56;95229.91;;;2.86;54.24
61292;BME280;47165;42.664;23.368;2023-02-01T07:51:21;95271.94;;;2.90;54.57
61292;BME280;47165;42.664;23.368;2023-02-01T07:53:47;95235.06;;;2.86;54.21
61292;BME280;47165;42.664;23.368;2023-02-01T07:56:14;95224.00;;;2.81;54.60
61292;BME280;47165;42.664;23.368;2023-02-01T07:58:41;95223.44;;;3.06;54.29
61292;BME280;47165;42.664;23.368;2023-02-01T08:01:16;95236.69;;;3.26;53.29
61292;BME280;47165;42.664;23.368;2023-02-01T08:03:50;95254.69;;;2.92;53.30
61292;BME280;47165;42.664;23.368;2023-02-01T08:06:16;95252.50;;;3.12;53.35
61292;BME280;47165;42.664;23.368;2023-02-01T08:08:41;95244.78;;;3.11;53.46
61292;BME280;47165;42.664;23.368;2023-02-01T08:11:07;95242.56;;;3.31;52.75
61292;BME280;47165;42.664;23.368;2023-02-01T08:13:34;95259.84;;;3.28;52.47
61292;BME280;47165;42.664;23.368;2023-02-01T08:16:02;95240.38;;;3.16;52.71
61292;BME280;47165;42.664;23.368;2023-02-01T08:18:27;95248.56;;;3.32;52.25
61292;BME280;47165;42.664;23.368;2023-02-01T08:20:53;95239.13;;;3.32;52.20
61292;BME280;47165;42.664;23.368;2023-02-01T08:23:20;95244.06;;;3.40;51.92
61292;BME280;47165;42.664;23.368;2023-02-01T08:25:45;95256.78;;;3.48;51.69
61292;BME280;47165;42.664;23.368;2023-02-01T08:28:11;95239.94;;;3.34;52.43
61292;BME280;47165;42.664;23.368;2023-02-01T08:30:38;95232.56;;;3.53;51.55
61292;BME280;47165;42.664;23.368;2023-02-01T08:33:04;95242.31;;;3.75;51.35
61292;BME280;47165;42.664;23.368;2023-02-01T08:35:32;95239.22;;;3.93;50.67
61292;BME280;47165;42.664;23.368;2023-02-01T08:37:57;95255.38;;;3.69;51.06
61292;BME280;47165;42.664;23.368;2023-02-01T08:40:23;95239.84;;;3.70;51.15
61292;BME280;47165;42.664;23.368;2023-02-01T08:42:48;95244.66;;;3.84;50.54
61292;BME280;47165;42.664;23.368;2023-02-01T08:45:28;95255.03;;;3.82;50.58
61292;BME280;47165;42.664;23.368;2023-02-01T08:47:55;95241.97;;;3.87;50.69
61292;BME280;47165;42.664;23.368;2023-02-01T08:50:22;95246.94;;;3.95;50.39
61292;BME280;47165;42.664;23.368;2023-02-01T08:52:48;95237.13;;;4.08;50.37
61292;BME280;47165;42.664;23.368;2023-02-01T08:55:14;95239.00;;;4.32;49.84
61292;BME280;47165;42.664;23.368;2023-02-01T08:57:40;95231.00;;;4.41;48.80
61292;BME280;47165;42.664;23.368;2023-02-01T09:00:13;95239.16;;;4.57;48.63
61292;BME280;47165;42.664;23.368;2023-02-01T09:02:40;95236.81;;;4.78;48.15
61292;BME280;47165;42.664;23.368;2023-02-01T09:05:06;95235.03;;;4.80;47.89
61292;BME280;47165;42.664;23.368;2023-02-01T09:07:32;95232.47;;;4.78;47.37
61292;BME280;47165;42.664;23.368;2023-02-01T09:09:58;95236.97;;;5.00;47.10
61292;BME280;47165;42.664;23.368;2023-02-01T09:12:27;95238.44;;;5.09;46.89
61292;BME280;47165;42.664;23.368;2023-02-01T09:14:55;95235.25;;;5.00;46.72
61292;BME280;47165;42.664;23.368;2023-02-01T09:17:20;95245.56;;;4.74;47.42
61292;BME280;47165;42.664;23.368;2023-02-01T09:19:46;95245.47;;;4.77;48.11
61292;BME280;47165;42.664;23.368;2023-02-01T09:22:11;95249.38;;;4.90;47.53
61292;BME280;47165;42.664;23.368;2023-02-01T09:24:37;95246.28;;;5.06;47.35
61292;BME280;47165;42.664;23.368;2023-02-01T09:27:02;95248.44;;;4.93;47.25
61292;BME280;47165;42.664;23.368;2023-02-01T09:29:28;95245.81;;;5.21;47.33
61292;BME280;47165;42.664;23.368;2023-02-01T09:31:53;95234.88;;;5.39;47.10
61292;BME280;47165;42.664;23.368;2023-02-01T09:34:18;95236.84;;;5.58;46.77
61292;BME280;47165;42.664;23.368;2023-02-01T09:36:44;95231.09;;;5.75;46.14
61292;BME280;47165;42.664;23.368;2023-02-01T09:39:09;95225.09;;;5.73;45.75
61292;BME280;47165;42.664;23.368;2023-02-01T09:41:58;95234.97;;;5.36;46.47
61292;BME280;47165;42.664;23.368;2023-02-01T09:46:57;95234.75;;;5.68;46.11
61292;BME280;47165;42.664;23.368;2023-02-01T09:49:27;95231.44;;;5.89;46.04
61292;BME280;47165;42.664;23.368;2023-02-01T09:51:55;95212.94;;;5.50;45.75
61292;BME280;47165;42.664;23.368;2023-02-01T09:54:25;95201.97;;;5.68;45.61
61292;BME280;47165;42.664;23.368;2023-02-01T10:02:08;95193.81;;;6.28;44.92
61292;BME280;47165;42.664;23.368;2023-02-01T10:04:36;95194.53;;;6.55;44.43
61292;BME280;47165;42.664;23.368;2023-02-01T10:25:44;95163.63;;;7.35;41.28
61292;BME280;47165;42.664;23.368;2023-02-01T10:28:16;95148.69;;;7.61;41.52
61292;BME280;47165;42.664;23.368;2023-02-01T10:30:46;95149.06;;;7.72;40.78
61292;BME280;47165;42.664;23.368;2023-02-01T10:33:19;95159.00;;;7.62;40.32
61292;BME280;47165;42.664;23.368;2023-02-01T10:35:53;95132.72;;;7.29;40.79
61292;BME280;47165;42.664;23.368;2023-02-01T10:38:27;95141.41;;;7.69;41.10
61292;BME280;47165;42.664;23.368;2023-02-01T10:40:55;95147.72;;;8.03;39.86
61292;BME280;47165;42.664;23.368;2023-02-01T10:43:21;95126.84;;;8.23;39.66
61292;BME280;47165;42.664;23.368;2023-02-01T10:45:47;95131.38;;;8.58;39.25
61292;BME280;47165;42.664;23.368;2023-02-01T10:48:13;95142.13;;;9.05;38.31
61292;BME280;47165;42.664;23.368;2023-02-01T10:50:48;95136.69;;;8.17;37.89
61292;BME280;47165;42.664;23.368;2023-02-01T10:53:24;95137.41;;;7.41;40.29
61292;BME280;47165;42.664;23.368;2023-02-01T10:55:54;95128.53;;;7.66;39.94
61292;BME280;47165;42.664;23.368;2023-02-01T10:58:27;95146.91;;;7.82;38.71
61292;BME280;47165;42.664;23.368;2023-02-01T11:00:57;95128.41;;;8.65;37.64
61292;BME280;47165;42.664;23.368;2023-02-01T11:03:33;95150.59;;;8.92;37.32
61292;BME280;47165;42.664;23.368;2023-02-01T11:06:01;95141.22;;;9.92;35.46
61292;BME280;47165;42.664;23.368;2023-02-01T11:08:27;95126.97;;;10.64;34.51
61292;BME280;47165;42.664;23.368;2023-02-01T11:10:59;95101.97;;;10.60;34.14
61292;BME280;47165;42.664;23.368;2023-02-01T11:13:30;95109.69;;;11.24;33.01
61292;BME280;47165;42.664;23.368;2023-02-01T11:15:57;95121.84;;;11.09;32.88
61292;BME280;47165;42.664;23.368;2023-02-01T11:18:38;95123.84;;;10.58;33.53
61292;BME280;47165;42.664;23.368;2023-02-01T11:21:06;95119.53;;;10.41;34.46
61292;BME280;47165;42.664;23.368;2023-02-01T11:23:32;95101.22;;;9.76;34.24
61292;BME280;47165;42.664;23.368;2023-02-01T11:26:10;95117.47;;;9.13;35.82
61292;BME280;47165;42.664;23.368;2023-02-01T11:28:40;95117.91;;;9.38;36.01
61292;BME280;47165;42.664;23.368;2023-02-01T11:31:12;95096.03;;;8.71;36.91
61292;BME280;47165;42.664;23.368;2023-02-01T11:33:52;95092.03;;;9.69;35.54
61292;BME280;47165;42.664;23.368;2023-02-01T11:36:23;95080.00;;;9.99;34.26
61292;BME280;47165;42.664;23.368;2023-02-01T11:38:54;95101.53;;;10.52;34.26
61292;BME280;47165;42.664;23.368;2023-02-01T11:41:31;95108.66;;;10.80;33.27
61292;BME280;47165;42.664;23.368;2023-02-01T11:44:02;95094.97;;;10.61;33.32
61292;BME280;47165;42.664;23.368;2023-02-01T11:46:41;95103.94;;;9.74;34.98
61292;BME280;47165;42.664;23.368;2023-02-01T11:49:26;95088.63;;;10.49;33.99
61292;BME280;47165;42.664;23.368;2023-02-01T11:52:12;95114.81;;;9.82;34.39
61292;BME280;47165;42.664;23.368;2023-02-01T12:00:17;95112.94;;;10.18;34.04
61292;BME280;47165;42.664;23.368;2023-02-01T12:03:11;95064.91;;;9.73;34.22
61292;BME280;47165;42.664;23.368;2023-02-01T12:29:37;95054.31;;;9.92;34.84
61292;BME280;47165;42.664;23.368;2023-02-01T12:48:26;95063.50;;;9.50;35.65
61292;BME280;47165;42.664;23.368;2023-02-01T12:50:59;95079.09;;;10.16;35.02
61292;BME280;47165;42.664;23.368;2023-02-01T12:56:09;95066.47;;;10.24;34.60
61292;BME280;47165;42.664;23.368;2023-02-01T12:58:45;95086.00;;;10.17;33.83
61292;BME280;47165;42.664;23.368;2023-02-01T13:01:17;95057.19;;;9.54;34.94
61292;BME280;47165;42.664;23.368;2023-02-01T13:03:59;95093.88;;;10.00;34.08
61292;BME280;47165;42.664;23.368;2023-02-01T13:06:31;95078.38;;;10.46;33.84
61292;BME280;47165;42.664;23.368;2023-02-01T13:09:09;95060.31;;;10.89;33.21
61292;BME280;47165;42.664;23.368;2023-02-01T13:11:40;95048.81;;;11.22;32.19
61292;BME280;47165;42.664;23.368;2023-02-01T13:16:51;95070.78;;;11.48;31.73
61292;BME280;47165;42.664;23.368;2023-02-01T13:46:43;95066.97;;;10.15;32.98
61292;BME280;47165;42.664;23.368;2023-02-01T13:49:20;95050.31;;;10.65;32.17
61292;BME280;47165;42.664;23.368;2023-02-01T13:51:50;95042.88;;;10.74;32.06
61292;BME280;47165;42.664;23.368;2023-02-01T13:54:43;95042.97;;;10.72;32.00
61292;BME280;47165;42.664;23.368;2023-02-01T13:57:38;95040.06;;;11.37;31.34
61292;BME280;47165;42.664;23.368;2023-02-01T14:02:48;95056.75;;;11.20;31.47
61292;BME280;47165;42.664;23.368;2023-02-01T14:13:33;95055.69;;;9.99;33.27
61292;BME280;47165;42.664;23.368;2023-02-01T14:23:45;95041.66;;;8.65;36.08
61292;BME280;47165;42.664;23.368;2023-02-01T14:26:20;95028.13;;;8.58;36.16
61292;BME280;47165;42.664;23.368;2023-02-01T14:29:03;95054.72;;;8.27;36.55
61292;BME280;47165;42.664;23.368;2023-02-01T14:31:40;95028.97;;;7.84;37.60
61292;BME280;47165;42.664;23.368;2023-02-01T14:34:15;95023.75;;;7.84;37.49
61292;BME280;47165;42.664;23.368;2023-02-01T14:36:43;94994.03;;;7.90;37.64
61292;BME280;47165;42.664;23.368;2023-02-01T14:39:20;95039.56;;;7.01;39.12
61292;BME280;47165;42.664;23.368;2023-02-01T14:41:52;95025.41;;;7.48;38.68
61292;BME280;47165;42.664;23.368;2023-02-01T14:44:25;95028.78;;;7.31;38.99
61292;BME280;47165;42.664;23.368;2023-02-01T14:47:10;95031.91;;;7.18;39.38
61292;BME280;47165;42.664;23.368;2023-02-01T14:49:47;95040.16;;;7.08;39.09
61292;BME280;47165;42.664;23.368;2023-02-01T14:52:17;95044.28;;;7.32;39.00
61292;BME280;47165;42.664;23.368;2023-02-01T14:54:51;95066.91;;;7.30;39.12
61292;BME280;47165;42.664;23.368;2023-02-01T14:57:19;95053.06;;;7.09;39.71
61292;BME280;47165;42.664;23.368;2023-02-01T14:59:46;95077.19;;;6.48;41.15
61292;BME280;47165;42.664;23.368;2023-02-01T15:02:23;95054.72;;;6.69;40.80
61292;BME280;47165;42.664;23.368;2023-02-01T15:04:55;95056.31;;;6.51;41.43
61292;BME280;47165;42.664;23.368;2023-02-01T15:07:22;95040.03;;;6.48;41.53
61292;BME280;47165;42.664;23.368;2023-02-01T15:09:50;95056.44;;;6.48;41.67
61292;BME280;47165;42.664;23.368;2023-02-01T15:12:24;95063.13;;;6.54;41.57
61292;BME280;47165;42.664;23.368;2023-02-01T15:15:20;95055.50;;;6.71;41.52
61292;BME280;47165;42.664;23.368;2023-02-01T15:17:55;95057.03;;;6.55;41.64
61292;BME280;47165;42.664;23.368;2023-02-01T15:20:24;95049.94;;;6.38;41.71
61292;BME280;47165;42.664;23.368;2023-02-01T15:23:04;95049.81;;;6.41;42.11
61292;BME280;47165;42.664;23.368;2023-02-01T15:25:32;95050.41;;;6.48;41.98
61292;BME280;47165;42.664;23.368;2023-02-01T15:27:59;95047.16;;;6.64;41.40
61292;BME280;47165;42.664;23.368;2023-02-01T15:30:27;95026.25;;;6.68;41.32
61292;BME280;47165;42.664;23.368;2023-02-01T15:33:15;95027.25;;;6.43;41.75
61292;BME280;47165;42.664;23.368;2023-02-01T15:35:46;95032.19;;;6.49;41.60
61292;BME280;47165;42.664;23.368;2023-02-01T15:38:34;95042.03;;;6.83;40.74
61292;BME280;47165;42.664;23.368;2023-02-01T15:41:20;95034.28;;;6.61;40.93
61292;BME280;47165;42.664;23.368;2023-02-01T15:44:03;95046.16;;;6.67;40.86
61292;BME280;47165;42.664;23.368;2023-02-01T15:46:36;95041.69;;;6.71;40.43
61292;BME280;47165;42.664;23.368;2023-02-01T15:49:02;95037.22;;;6.74;40.07
61292;BME280;47165;42.664;23.368;2023-02-01T15:51:30;95048.13;;;6.40;40.75
61292;BME280;47165;42.664;23.368;2023-02-01T15:54:00;95043.34;;;6.51;40.43
61292;BME280;47165;42.664;23.368;2023-02-01T15:56:37;95054.38;;;6.56;40.43
61292;BME280;47165;42.664;23.368;2023-02-01T15:59:06;95044.03;;;6.56;40.56